Portada
METAR-TAF:

METAR-TAF

Aeroports :

Salluit, Quebec, Canadà

latitud: 62-11N, longitud: 075-40W, altitud: 226 m

Observació

L'informe es va fer fa 1 hora i 1 minuts, a les 21:00 UTC
Vent calma
Temperatura -21°C
Humitat 64%
Pressió 1020 hPa
Visibilitat: 24.1 km
Escasses núvols a una alçada de 12000 ft

METAR: CYZG 282100Z 00000KT 15SM FEW120 M21/M26 A3011 RMK AC1 AC TR SLP234

Hora: 17:01 (22:01 UTC)

Pronòstic

L'informe es va fer fa 7 hores i 23 minuts, a les 14:38 UTC
Pronòstic vàlid del 28 a les 15 UTC al 28 a les 22 UTC
Vent 3 kt amb direcció variable
Visibilitat: 10 km
Cel clar

TAF: CYZG 281438Z 2815/2822 VRB03KT P6SM SKC RMK NXT FCST WILL BE ISSUED AT 291445Z

Observacions i pronòstics meteorològics de més de 4000 aeroports (METAR i TAF).

Les estacions disponibles són els punts grocs i vermells al mapa.

Posi el ratolí al punt desitjat per veure el nom de l'estació.

Feu clic per veure les observacions i els pronòstics meteorològics.

Per canviar el mapa: feu clic els botons verds amb una creu de color negre per apropar; al botó verd amb un guió per allunyar la imatge; o en les fletxes verdes per a mapes adjacents.


METAR-TAF: